sensor_id;sensor_type;location;lat;lon;timestamp;pressure;altitude;pressure_sealevel;temperature;humidity
83195;BME280;73090;49.282;11.402;2023-10-09T00:04:17;97031.66;;;19.45;58.98
83195;BME280;73090;49.282;11.402;2023-10-09T00:13:26;97019.63;;;19.43;58.97
83195;BME280;73090;49.282;11.402;2023-10-09T00:22:34;97024.13;;;19.42;59.10
83195;BME280;73090;49.282;11.402;2023-10-09T00:31:39;97015.78;;;19.38;59.03
83195;BME280;73090;49.282;11.402;2023-10-09T00:40:52;97008.81;;;19.37;59.04
83195;BME280;73090;49.282;11.402;2023-10-09T00:50:12;96994.09;;;19.35;58.86
83195;BME280;73090;49.282;11.402;2023-10-09T00:59:16;96965.00;;;19.33;59.34
83195;BME280;73090;49.282;11.402;2023-10-09T01:08:22;96956.44;;;19.31;59.12
83195;BME280;73090;49.282;11.402;2023-10-09T01:17:32;96944.16;;;19.30;59.12
83195;BME280;73090;49.282;11.402;2023-10-09T01:26:39;96941.47;;;19.30;58.90
83195;BME280;73090;49.282;11.402;2023-10-09T01:35:46;96934.50;;;19.29;58.93
83195;BME280;73090;49.282;11.402;2023-10-09T01:44:52;96923.06;;;19.29;59.01
83195;BME280;73090;49.282;11.402;2023-10-09T01:53:54;96917.16;;;19.27;59.19
83195;BME280;73090;49.282;11.402;2023-10-09T02:02:58;96906.94;;;19.24;58.98
83195;BME280;73090;49.282;11.402;2023-10-09T02:12:07;96897.66;;;19.26;59.10
83195;BME280;73090;49.282;11.402;2023-10-09T02:21:09;96901.84;;;19.22;59.08
83195;BME280;73090;49.282;11.402;2023-10-09T02:30:11;96899.19;;;19.22;58.73
83195;BME280;73090;49.282;11.402;2023-10-09T02:39:29;96883.44;;;19.20;59.23
83195;BME280;73090;49.282;11.402;2023-10-09T02:48:38;96866.88;;;19.18;58.86
83195;BME280;73090;49.282;11.402;2023-10-09T02:57:44;96858.03;;;19.18;59.13
83195;BME280;73090;49.282;11.402;2023-10-09T03:06:47;96856.44;;;19.17;58.72
83195;BME280;73090;49.282;11.402;2023-10-09T03:15:51;96857.22;;;19.17;58.99
83195;BME280;73090;49.282;11.402;2023-10-09T03:24:53;96864.66;;;19.15;58.97
83195;BME280;73090;49.282;11.402;2023-10-09T03:33:56;96857.69;;;19.14;59.15
83195;BME280;73090;49.282;11.402;2023-10-09T03:42:58;96845.16;;;19.15;58.68
83195;BME280;73090;49.282;11.402;2023-10-09T03:52:02;96847.28;;;19.13;58.94
83195;BME280;73090;49.282;11.402;2023-10-09T04:01:07;96828.63;;;19.13;58.76
83195;BME280;73090;49.282;11.402;2023-10-09T04:10:09;96825.38;;;19.11;58.75
83195;BME280;73090;49.282;11.402;2023-10-09T04:19:34;96818.88;;;19.07;58.80
83195;BME280;73090;49.282;11.402;2023-10-09T04:28:49;96813.78;;;19.05;58.77
83195;BME280;73090;49.282;11.402;2023-10-09T04:37:53;96811.13;;;19.05;58.67
83195;BME280;73090;49.282;11.402;2023-10-09T04:47:06;96807.88;;;19.03;58.91
83195;BME280;73090;49.282;11.402;2023-10-09T04:56:16;96802.00;;;19.01;59.03
83195;BME280;73090;49.282;11.402;2023-10-09T05:05:18;96790.50;;;19.00;58.86
83195;BME280;73090;49.282;11.402;2023-10-09T05:14:39;96791.34;;;19.01;58.96
83195;BME280;73090;49.282;11.402;2023-10-09T05:23:46;96799.06;;;19.02;59.01
83195;BME280;73090;49.282;11.402;2023-10-09T05:33:11;96796.41;;;19.02;59.35
83195;BME280;73090;49.282;11.402;2023-10-09T05:42:39;96806.03;;;19.03;58.95
83195;BME280;73090;49.282;11.402;2023-10-09T05:51:45;96813.00;;;19.05;59.00
83195;BME280;73090;49.282;11.402;2023-10-09T06:00:55;96821.56;;;19.07;58.90
83195;BME280;73090;49.282;11.402;2023-10-09T06:10:15;96813.56;;;19.07;59.46
83195;BME280;73090;49.282;11.402;2023-10-09T06:19:38;96803.22;;;19.10;59.12
83195;BME280;73090;49.282;11.402;2023-10-09T06:28:46;96808.34;;;19.12;59.35
83195;BME280;73090;49.282;11.402;2023-10-09T06:37:51;96828.16;;;19.16;60.19
83195;BME280;73090;49.282;11.402;2023-10-09T06:47:05;96813.28;;;19.20;59.37
83195;BME280;73090;49.282;11.402;2023-10-09T06:56:10;96836.47;;;19.31;60.97
83195;BME280;73090;49.282;11.402;2023-10-09T07:05:24;96832.09;;;19.25;60.32
83195;BME280;73090;49.282;11.402;2023-10-09T07:14:33;96835.09;;;19.29;59.70
83195;BME280;73090;49.282;11.402;2023-10-09T07:23:37;96864.03;;;19.37;59.28
83195;BME280;73090;49.282;11.402;2023-10-09T07:32:49;96870.69;;;19.34;59.13
83195;BME280;73090;49.282;11.402;2023-10-09T07:41:54;96867.50;;;19.37;58.87
83195;BME280;73090;49.282;11.402;2023-10-09T07:51:03;96884.69;;;19.42;58.65
83195;BME280;73090;49.282;11.402;2023-10-09T08:00:07;96895.69;;;19.45;58.29
83195;BME280;73090;49.282;11.402;2023-10-09T08:09:35;96904.81;;;19.61;57.96
83195;BME280;73090;49.282;11.402;2023-10-09T08:18:50;96899.16;;;19.69;57.66
83195;BME280;73090;49.282;11.402;2023-10-09T08:27:57;96895.97;;;19.72;57.29
83195;BME280;73090;49.282;11.402;2023-10-09T08:36:59;96892.75;;;19.70;57.27
83195;BME280;73090;49.282;11.402;2023-10-09T08:46:02;96904.00;;;19.84;56.85
83195;BME280;73090;49.282;11.402;2023-10-09T08:55:06;96910.97;;;19.85;56.69
83195;BME280;73090;49.282;11.402;2023-10-09T09:04:08;96917.19;;;20.03;56.41
83195;BME280;73090;49.282;11.402;2023-10-09T09:13:15;96917.75;;;20.05;56.06
83195;BME280;73090;49.282;11.402;2023-10-09T09:22:20;96913.78;;;20.07;56.29
83195;BME280;73090;49.282;11.402;2023-10-09T09:31:21;96913.22;;;20.05;56.19
83195;BME280;73090;49.282;11.402;2023-10-09T09:40:24;96915.25;;;20.44;54.98
83195;BME280;73090;49.282;11.402;2023-10-09T09:49:38;96916.66;;;20.46;54.74
83195;BME280;73090;49.282;11.402;2023-10-09T09:58:43;96922.53;;;20.32;55.25
83195;BME280;73090;49.282;11.402;2023-10-09T10:07:47;96937.00;;;20.36;55.12
83195;BME280;73090;49.282;11.402;2023-10-09T10:17:07;96942.31;;;20.47;54.99
83195;BME280;73090;49.282;11.402;2023-10-09T10:26:22;96924.66;;;20.75;55.21
83195;BME280;73090;49.282;11.402;2023-10-09T10:35:28;96931.47;;;20.83;55.09
83195;BME280;73090;49.282;11.402;2023-10-09T10:44:46;96931.94;;;21.14;54.43
83195;BME280;73090;49.282;11.402;2023-10-09T10:53:55;96932.53;;;20.99;54.48
83195;BME280;73090;49.282;11.402;2023-10-09T11:02:58;96908.47;;;20.99;54.34
83195;BME280;73090;49.282;11.402;2023-10-09T11:12:20;96889.53;;;21.00;54.57
83195;BME280;73090;49.282;11.402;2023-10-09T11:21:25;96875.44;;;21.05;55.43
83195;BME280;73090;49.282;11.402;2023-10-09T11:30:32;96848.69;;;21.05;55.14
83195;BME280;73090;49.282;11.402;2023-10-09T11:39:34;96854.47;;;21.36;54.49
83195;BME280;73090;49.282;11.402;2023-10-09T11:48:36;96878.09;;;21.61;53.88
83195;BME280;73090;49.282;11.402;2023-10-09T11:57:48;96901.22;;;21.50;53.84
83195;BME280;73090;49.282;11.402;2023-10-09T12:16:08;96875.19;;;21.46;54.34
83195;BME280;73090;49.282;11.402;2023-10-09T12:25:12;96946.47;;;21.35;54.63
83195;BME280;73090;49.282;11.402;2023-10-09T12:34:14;96979.78;;;21.27;53.90
83195;BME280;73090;49.282;11.402;2023-10-09T12:43:19;96939.31;;;21.24;54.14
83195;BME280;73090;49.282;11.402;2023-10-09T12:52:24;96840.38;;;21.24;54.16
83195;BME280;73090;49.282;11.402;2023-10-09T13:01:31;96800.44;;;21.34;53.88
83195;BME280;73090;49.282;11.402;2023-10-09T13:10:33;96797.56;;;21.41;53.30
83195;BME280;73090;49.282;11.402;2023-10-09T13:19:39;96778.00;;;21.35;53.30
83195;BME280;73090;49.282;11.402;2023-10-09T13:28:41;96767.19;;;21.30;53.88
83195;BME280;73090;49.282;11.402;2023-10-09T13:37:45;96761.81;;;21.25;54.17
83195;BME280;73090;49.282;11.402;2023-10-09T13:47:05;96754.41;;;21.32;54.02
83195;BME280;73090;49.282;11.402;2023-10-09T13:56:19;96746.94;;;21.34;54.46
83195;BME280;73090;49.282;11.402;2023-10-09T14:05:21;96752.59;;;21.37;54.94
83195;BME280;73090;49.282;11.402;2023-10-09T14:14:23;96753.72;;;21.42;55.06
83195;BME280;73090;49.282;11.402;2023-10-09T14:23:26;96757.16;;;21.37;55.31
83195;BME280;73090;49.282;11.402;2023-10-09T15:25:00;96790.41;;;21.24;56.47
83195;BME280;73090;49.282;11.402;2023-10-09T15:34:02;96808.88;;;21.26;56.95
83195;BME280;73090;49.282;11.402;2023-10-09T15:43:04;96801.63;;;21.43;56.25
83195;BME280;73090;49.282;11.402;2023-10-09T15:52:06;96804.53;;;21.42;56.48
83195;BME280;73090;49.282;11.402;2023-10-09T16:01:14;96815.53;;;21.89;55.09
83195;BME280;73090;49.282;11.402;2023-10-09T16:10:16;96807.47;;;21.40;56.22
83195;BME280;73090;49.282;11.402;2023-10-09T16:19:19;96819.59;;;21.26;56.06
83195;BME280;73090;49.282;11.402;2023-10-09T16:28:24;96832.06;;;21.20;56.00
83195;BME280;73090;49.282;11.402;2023-10-09T16:37:26;96820.75;;;21.13;56.01
83195;BME280;73090;49.282;11.402;2023-10-09T16:46:27;96801.38;;;21.06;56.01
83195;BME280;73090;49.282;11.402;2023-10-09T16:55:30;96795.72;;;21.02;56.61
83195;BME280;73090;49.282;11.402;2023-10-09T17:04:32;96794.28;;;20.94;56.76
83195;BME280;73090;49.282;11.402;2023-10-09T17:13:35;96780.69;;;20.96;57.03
83195;BME280;73090;49.282;11.402;2023-10-09T17:22:38;96802.31;;;20.94;57.00
83195;BME280;73090;49.282;11.402;2023-10-09T17:31:40;96810.97;;;20.84;56.65
83195;BME280;73090;49.282;11.402;2023-10-09T17:40:46;96799.56;;;20.72;57.08
83195;BME280;73090;49.282;11.402;2023-10-09T17:49:53;96807.41;;;20.62;57.52
83195;BME280;73090;49.282;11.402;2023-10-09T17:58:54;96811.28;;;20.54;57.69
83195;BME280;73090;49.282;11.402;2023-10-09T18:07:56;96830.97;;;20.48;57.89
83195;BME280;73090;49.282;11.402;2023-10-09T18:17:02;96817.53;;;20.43;57.78
83195;BME280;73090;49.282;11.402;2023-10-09T18:26:06;96806.75;;;20.38;57.94
83195;BME280;73090;49.282;11.402;2023-10-09T18:35:08;96818.50;;;20.37;58.18
83195;BME280;73090;49.282;11.402;2023-10-09T18:44:17;96807.56;;;20.38;58.64
83195;BME280;73090;49.282;11.402;2023-10-09T18:53:20;96802.78;;;20.40;58.90
83195;BME280;73090;49.282;11.402;2023-10-09T19:02:22;96805.94;;;20.37;58.93
83195;BME280;73090;49.282;11.402;2023-10-09T19:11:23;96814.44;;;20.34;59.01
83195;BME280;73090;49.282;11.402;2023-10-09T19:20:25;96811.50;;;20.36;58.99
83195;BME280;73090;49.282;11.402;2023-10-09T19:29:27;96823.81;;;20.37;58.60
83195;BME280;73090;49.282;11.402;2023-10-09T19:38:30;96841.38;;;20.33;58.69
83195;BME280;73090;49.282;11.402;2023-10-09T19:47:33;96842.59;;;20.42;58.98
83195;BME280;73090;49.282;11.402;2023-10-09T19:56:35;96846.66;;;20.44;59.12
83195;BME280;73090;49.282;11.402;2023-10-09T20:05:38;96846.06;;;20.42;59.55
83195;BME280;73090;49.282;11.402;2023-10-09T20:14:41;96853.28;;;20.42;59.20
83195;BME280;73090;49.282;11.402;2023-10-09T20:23:44;96858.06;;;20.40;58.81
83195;BME280;73090;49.282;11.402;2023-10-09T20:32:46;96860.97;;;20.38;58.64
83195;BME280;73090;49.282;11.402;2023-10-09T20:41:48;96872.28;;;20.45;58.79
83195;BME280;73090;49.282;11.402;2023-10-09T20:50:49;96876.28;;;20.43;58.30
83195;BME280;73090;49.282;11.402;2023-10-09T20:59:51;96866.63;;;20.42;58.36
83195;BME280;73090;49.282;11.402;2023-10-09T21:08:54;96881.94;;;20.46;58.47
83195;BME280;73090;49.282;11.402;2023-10-09T21:17:55;96878.34;;;20.41;58.64
83195;BME280;73090;49.282;11.402;2023-10-09T21:26:57;96883.13;;;20.39;58.43
83195;BME280;73090;49.282;11.402;2023-10-09T21:35:59;96888.47;;;20.39;58.52
83195;BME280;73090;49.282;11.402;2023-10-09T21:45:00;96898.91;;;20.40;58.39
83195;BME280;73090;49.282;11.402;2023-10-09T21:54:02;96900.94;;;20.33;58.64
83195;BME280;73090;49.282;11.402;2023-10-09T22:03:08;96895.13;;;20.36;58.10
83195;BME280;73090;49.282;11.402;2023-10-09T22:12:10;96896.72;;;20.37;58.02
83195;BME280;73090;49.282;11.402;2023-10-09T22:21:15;96897.78;;;20.36;58.03
83195;BME280;73090;49.282;11.402;2023-10-09T22:30:17;96905.28;;;20.39;58.11
83195;BME280;73090;49.282;11.402;2023-10-09T22:39:30;96900.69;;;20.35;58.31
83195;BME280;73090;49.282;11.402;2023-10-09T22:48:34;96894.22;;;20.30;58.18
83195;BME280;73090;49.282;11.402;2023-10-09T22:57:43;96891.06;;;20.34;58.17
83195;BME280;73090;49.282;11.402;2023-10-09T23:06:45;96889.19;;;20.34;58.03
83195;BME280;73090;49.282;11.402;2023-10-09T23:15:48;96897.19;;;20.34;58.30
83195;BME280;73090;49.282;11.402;2023-10-09T23:25:08;96902.69;;;20.27;57.96
83195;BME280;73090;49.282;11.402;2023-10-09T23:34:10;96901.19;;;20.32;58.04
83195;BME280;73090;49.282;11.402;2023-10-09T23:43:20;96902.94;;;20.26;58.49
83195;BME280;73090;49.282;11.402;2023-10-09T23:52:29;96915.63;;;20.19;58.43
